L04 weather

Holtville Airport
Holtville, California, United States

Public forecast

Using degrees Fahrenheit for public forecast. Weather courtesy of forecast.io.

Closest aviation weather report (METAR) to Holtville Airport

Closest report is General Rodolfo Sánchez Taboada International Airport, 12.7 nm (23.4 km) S. Retrieved 2020/04/08 04:54 UTC (51 minutes ago):

MMML 080454Z 35009KT 10SM SKC 17/07 A2994 RMK ISOL-CU

Closest aviation forecast (TAF) to Holtville Airport

Forecast is more than 6 hours old.

Closest forecast is General Rodolfo Sánchez Taboada International Airport, 12.7 nm (23.4 km) S. Retrieved 2020/04/07 18:29 UTC (11 hours ago):

TAF MMML 071721Z 0718/0818 20012KT P6SM SCT040 FM080300 23010KT P6SM SCT020 BKN100 FM081200 18012KT 6SM HZ BKN030 OVC080 PROB40 0814/0818 5SM RA